Time;durP1;ratioP1;P1;durP2;ratioP2;P2;SDS_P1;SDS_P2;PMS_P1;PMS_P2;Temp;Humidity;BMP_temperature;BMP_pressure;BME280_temperature;BME280_humidity;BME280_pressure;Samples;Min_cycle;Max_cycle;Signal;HPM_P1;HPM_P2
2023/12/09 00:01:58;;;;;;;26.70;8.43;;;;;;;6.19;100.00;100968.50;5112883;27;20019;-58
2023/12/09 00:04:24;;;;;;;26.23;9.73;;;;;;;6.22;100.00;100967.53;5110656;27;20061;-58
2023/12/09 00:06:49;;;;;;;27.83;8.43;;;;;;;6.14;100.00;100952.84;5094130;28;20050;-58
2023/12/09 00:09:18;;;;;;;30.33;9.98;;;;;;;6.23;100.00;100958.66;5093819;28;20031;-58
2023/12/09 00:11:44;;;;;;;30.00;7.65;;;;;;;6.20;100.00;100953.50;5112133;27;20080;-58
2023/12/09 00:14:09;;;;;;;32.80;11.43;;;;;;;6.16;100.00;100951.94;5093854;28;20027;-58
2023/12/09 00:16:38;;;;;;;30.30;10.85;;;;;;;6.12;100.00;100952.06;5110418;28;20015;-58
2023/12/09 00:19:03;;;;;;;30.10;9.15;;;;;;;6.13;100.00;100963.50;5111671;27;20024;-58
2023/12/09 00:21:29;;;;;;;19.70;8.57;;;;;;;6.12;100.00;100954.72;5094442;28;20243;-58
2023/12/09 00:23:54;;;;;;;24.50;9.18;;;;;;;6.12;100.00;100962.63;5091150;28;20454;-58
2023/12/09 00:26:19;;;;;;;28.40;8.27;;;;;;;6.12;100.00;100965.28;5111837;27;20052;-58
2023/12/09 00:28:45;;;;;;;27.83;9.55;;;;;;;6.12;100.00;100961.78;5078316;28;20024;-58
2023/12/09 00:31:11;;;;;;;27.60;9.18;;;;;;;6.20;100.00;100972.84;5112124;27;20854;-58
2023/12/09 00:33:36;;;;;;;28.55;9.05;;;;;;;6.15;100.00;100961.66;5094448;28;20046;-57
2023/12/09 00:36:01;;;;;;;22.92;8.20;;;;;;;6.14;100.00;100965.19;5115245;27;20015;-57
2023/12/09 00:38:27;;;;;;;41.65;10.02;;;;;;;6.14;100.00;100960.75;5093278;27;20039;-58
2023/12/09 00:40:52;;;;;;;37.70;10.20;;;;;;;6.12;100.00;100949.44;5095044;27;20088;-58
2023/12/09 00:43:18;;;;;;;28.55;9.73;;;;;;;6.15;100.00;100953.72;5094917;27;20546;-58
2023/12/09 00:45:43;;;;;;;31.95;9.65;;;;;;;6.13;100.00;100958.22;5093195;28;20104;-58
2023/12/09 00:48:09;;;;;;;27.40;9.15;;;;;;;6.21;100.00;100949.97;5110919;28;20378;-58
2023/12/09 00:50:34;;;;;;;31.50;9.32;;;;;;;6.17;100.00;100961.56;5095793;28;20033;-58
2023/12/09 00:53:02;;;;;;;27.77;9.68;;;;;;;6.18;100.00;100969.44;5092694;28;20490;-57
2023/12/09 00:55:27;;;;;;;33.42;10.80;;;;;;;6.17;100.00;100957.16;5116847;27;20474;-57
2023/12/09 00:57:53;;;;;;;32.80;9.63;;;;;;;6.12;100.00;100938.88;5095221;27;20076;-58
2023/12/09 01:00:18;;;;;;;34.28;9.45;;;;;;;6.10;100.00;100943.34;5092068;28;20500;-58
2023/12/09 01:02:44;;;;;;;23.33;9.05;;;;;;;5.97;100.00;100934.25;5094193;28;20015;-58
2023/12/09 01:05:10;;;;;;;27.52;9.23;;;;;;;6.08;100.00;100950.47;5113273;27;20020;-58
2023/12/09 01:07:36;;;;;;;42.95;11.38;;;;;;;6.03;100.00;100944.56;5092702;28;20031;-58
2023/12/09 01:10:03;;;;;;;31.52;9.05;;;;;;;6.00;100.00;100946.44;5094977;28;20385;-58
2023/12/09 01:12:30;;;;;;;27.45;8.13;;;;;;;6.04;100.00;100948.03;5110560;27;20031;-58
2023/12/09 01:14:57;;;;;;;27.67;9.38;;;;;;;5.98;100.00;100935.97;5092644;28;20015;-58
2023/12/09 01:17:23;;;;;;;30.17;7.75;;;;;;;6.00;100.00;100928.84;5092950;28;20458;-58
2023/12/09 01:19:48;;;;;;;28.90;9.68;;;;;;;5.99;100.00;100934.19;5112868;27;20031;-57
2023/12/09 01:22:13;;;;;;;27.38;9.95;;;;;;;5.97;100.00;100933.38;5110356;28;20152;-58
2023/12/09 01:24:42;;;;;;;24.33;10.07;;;;;;;5.99;100.00;100940.31;5111933;27;20023;-58
2023/12/09 01:27:10;;;;;;;27.80;10.70;;;;;;;5.92;100.00;100938.84;5117334;28;20485;-58
2023/12/09 01:29:39;;;;;;;18.75;7.50;;;;;;;5.99;100.00;100944.72;5115798;27;20057;-58
2023/12/09 01:32:05;;;;;;;30.40;10.75;;;;;;;5.97;100.00;100936.00;5109565;27;20066;-58
2023/12/09 01:34:30;;;;;;;28.98;8.93;;;;;;;5.90;100.00;100932.75;5112911;28;20085;-58
2023/12/09 01:36:56;;;;;;;32.92;10.68;;;;;;;5.96;100.00;100940.44;5109858;28;20034;-58
2023/12/09 01:39:23;;;;;;;31.13;9.25;;;;;;;5.96;100.00;100939.59;5093224;28;20432;-58
2023/12/09 01:41:49;;;;;;;35.80;10.10;;;;;;;5.96;100.00;100939.59;5113999;28;20370;-58
2023/12/09 01:44:14;;;;;;;27.02;9.23;;;;;;;5.93;100.00;100937.94;5111922;28;20039;-57
2023/12/09 01:46:41;;;;;;;27.85;9.25;;;;;;;5.93;100.00;100924.72;5093596;28;20022;-58
2023/12/09 01:49:07;;;;;;;28.40;10.20;;;;;;;5.95;100.00;100914.13;5110745;28;20089;-58
2023/12/09 01:51:33;;;;;;;36.90;9.73;;;;;;;5.95;100.00;100914.97;5109681;28;20545;-57
2023/12/09 01:53:58;;;;;;;32.95;10.82;;;;;;;5.92;100.00;100904.53;5113899;28;20375;-57
2023/12/09 01:56:24;;;;;;;18.42;9.52;;;;;;;5.90;100.00;100901.94;5093720;28;20019;-58
2023/12/09 01:58:51;;;;;;;25.02;9.48;;;;;;;5.84;100.00;100885.50;5109779;28;20031;-58
2023/12/09 02:01:19;;;;;;;39.53;10.30;;;;;;;5.79;100.00;100890.13;5109357;28;20561;-58
2023/12/09 02:03:49;;;;;;;24.85;9.02;;;;;;;5.84;100.00;100904.84;5108871;28;20031;-58
2023/12/09 02:06:15;;;;;;;24.35;9.77;;;;;;;5.83;100.00;100915.47;5094511;28;20031;-58
2023/12/09 02:08:40;;;;;;;34.45;10.73;;;;;;;5.78;100.00;100918.28;5110050;28;20042;-57
2023/12/09 02:11:13;;;;;;;34.35;11.15;;;;;;;5.82;100.00;100917.22;5093027;28;20069;-58
2023/12/09 02:14:02;;;;;;;18.80;7.85;;;;;;;5.76;100.00;100912.22;5097197;28;20030;-58
2023/12/09 02:16:43;;;;;;;28.05;9.50;;;;;;;5.64;100.00;100891.63;5093143;28;20019;-58
2023/12/09 02:19:12;;;;;;;36.00;8.98;;;;;;;5.68;100.00;100907.28;5109615;28;20475;-57
2023/12/09 02:21:57;;;;;;;27.07;8.70;;;;;;;5.66;100.00;100909.09;5092178;28;20486;-57
2023/12/09 02:24:23;;;;;;;35.75;10.43;;;;;;;5.66;100.00;100910.91;5095367;28;20481;-58
2023/12/09 02:26:50;;;;;;;29.23;9.25;;;;;;;5.62;100.00;100901.41;5096187;28;20047;-58
2023/12/09 02:29:18;;;;;;;27.83;9.55;;;;;;;5.60;100.00;100897.97;5095850;28;20028;-58
2023/12/09 02:31:45;;;;;;;29.00;9.23;;;;;;;5.59;100.00;100894.47;5115022;27;20072;-58
2023/12/09 02:34:13;;;;;;;26.55;10.70;;;;;;;5.58;100.00;100890.09;5093532;28;20106;-57
2023/12/09 02:36:41;;;;;;;23.35;9.07;;;;;;;5.57;100.00;100893.66;5114328;28;20023;-58
2023/12/09 02:39:08;;;;;;;21.58;9.32;;;;;;;5.57;100.00;100880.47;5096636;28;20020;-57
2023/12/09 02:41:34;;;;;;;31.73;10.02;;;;;;;5.53;100.00;100875.38;5113739;27;20503;-58
2023/12/09 02:44:00;;;;;;;33.33;9.65;;;;;;;5.47;100.00;100872.09;5114375;27;20027;-58
2023/12/09 02:46:28;;;;;;;33.22;10.20;;;;;;;5.50;100.00;100878.13;5078779;28;20024;-57
2023/12/09 02:48:53;;;;;;;20.77;9.02;;;;;;;5.49;100.00;100872.00;5114551;27;20023;-57
2023/12/09 02:51:18;;;;;;;28.23;9.23;;;;;;;5.41;100.00;100864.44;5113891;28;20600;-58
2023/12/09 02:53:44;;;;;;;31.88;9.70;;;;;;;5.42;100.00;100863.50;5113806;27;20027;-57
2023/12/09 02:56:10;;;;;;;28.05;9.10;;;;;;;5.42;100.00;100865.28;5095647;28;20102;-58
2023/12/09 02:58:35;;;;;;;26.67;10.13;;;;;;;5.39;100.00;100861.00;5114274;28;20098;-58
2023/12/09 03:01:01;;;;;;;32.80;10.30;;;;;;;5.47;100.00;100873.84;5095186;28;20016;-58
2023/12/09 03:03:26;;;;;;;29.10;9.23;;;;;;;5.45;100.00;100844.91;5114074;27;20055;-57
2023/12/09 03:05:51;;;;;;;28.17;10.07;;;;;;;5.44;100.00;100871.34;5095454;28;20030;-57
2023/12/09 03:08:17;;;;;;;32.10;9.43;;;;;;;5.44;100.00;100850.25;5095636;28;20028;-57
2023/12/09 03:10:42;;;;;;;27.10;8.82;;;;;;;5.39;100.00;100854.88;5095323;28;20015;-57
2023/12/09 03:13:08;;;;;;;32.15;9.35;;;;;;;5.41;100.00;100834.53;5114760;27;20028;-58
2023/12/09 03:15:33;;;;;;;33.72;8.65;;;;;;;5.49;100.00;100864.09;5097433;28;20068;-58
2023/12/09 03:18:01;;;;;;;23.83;8.57;;;;;;;5.45;100.00;100851.97;5096405;28;20587;-58
2023/12/09 03:20:26;;;;;;;25.40;9.50;;;;;;;5.43;100.00;100865.22;5095005;28;20560;-58
2023/12/09 03:22:51;;;;;;;21.65;7.93;;;;;;;5.36;100.00;100847.94;5095265;28;20069;-57
2023/12/09 03:25:17;;;;;;;27.70;8.68;;;;;;;5.43;100.00;100853.81;5094562;28;20394;-58
2023/12/09 03:27:42;;;;;;;30.33;8.68;;;;;;;5.42;100.00;100842.41;5096897;27;20151;-58
2023/12/09 03:30:10;;;;;;;25.48;8.32;;;;;;;5.39;100.00;100858.38;5112955;28;20030;-58
2023/12/09 03:32:38;;;;;;;24.63;7.97;;;;;;;5.43;100.00;100846.75;5098940;27;20122;-58
2023/12/09 03:35:04;;;;;;;33.63;8.95;;;;;;;5.40;100.00;100849.50;5094339;28;20102;-57
2023/12/09 03:37:29;;;;;;;32.60;8.63;;;;;;;5.37;100.00;100830.34;5095636;28;20505;-58
2023/12/09 03:39:55;;;;;;;24.27;7.97;;;;;;;5.40;100.00;100841.59;5114347;27;20016;-57
2023/12/09 03:42:20;;;;;;;15.45;6.85;;;;;;;5.43;100.00;100838.84;5094985;28;20065;-58
2023/12/09 03:44:45;;;;;;;22.73;8.20;;;;;;;5.41;100.00;100837.19;5114439;27;20026;-58
2023/12/09 03:47:11;;;;;;;31.23;7.95;;;;;;;5.43;100.00;100841.47;5114742;27;20015;-58
2023/12/09 03:49:36;;;;;;;18.60;7.57;;;;;;;5.43;100.00;100833.56;5114272;27;20024;-58
2023/12/09 03:52:02;;;;;;;25.60;9.43;;;;;;;5.44;100.00;100826.50;5094719;28;20031;-58
2023/12/09 03:54:27;;;;;;;29.67;8.23;;;;;;;5.47;100.00;100818.47;5094640;28;20019;-58
2023/12/09 03:56:53;;;;;;;25.33;7.32;;;;;;;5.31;100.00;100788.41;5112805;27;20019;-58
2023/12/09 03:59:20;;;;;;;24.60;9.52;;;;;;;5.38;100.00;100801.28;5096338;28;20023;-58
2023/12/09 04:01:48;;;;;;;23.67;8.35;;;;;;;5.38;100.00;100803.91;5111715;27;20533;-58
2023/12/09 04:04:13;;;;;;;26.52;8.20;;;;;;;5.37;100.00;100799.53;5094233;28;20023;-57
2023/12/09 04:06:41;;;;;;;27.70;7.30;;;;;;;5.38;100.00;100800.38;5095642;28;20126;-58
2023/12/09 04:09:07;;;;;;;29.52;8.95;;;;;;;5.37;100.00;100809.22;5112872;28;20416;-58
2023/12/09 04:11:32;;;;;;;26.65;7.00;;;;;;;5.38;100.00;100806.56;5096213;27;20079;-58
2023/12/09 04:13:57;;;;;;;18.63;7.55;;;;;;;5.40;100.00;100809.97;5094876;28;20023;-58
2023/12/09 04:16:23;;;;;;;22.17;6.93;;;;;;;5.36;100.00;100805.75;5111734;28;20878;-58
2023/12/09 04:18:48;;;;;;;33.67;8.38;;;;;;;5.32;100.00;100804.13;5113654;27;20462;-58
2023/12/09 04:21:13;;;;;;;24.45;6.82;;;;;;;5.36;100.00;100808.38;5095418;28;20022;-58
2023/12/09 04:23:39;;;;;;;20.42;6.47;;;;;;;5.35;100.00;100806.66;5115256;27;20374;-57
2023/12/09 04:26:05;;;;;;;22.83;7.80;;;;;;;5.34;100.00;100807.59;5111957;27;20115;-58
2023/12/09 04:28:30;;;;;;;25.48;7.45;;;;;;;5.32;100.00;100790.97;5112582;27;20046;-58
2023/12/09 04:30:56;;;;;;;21.10;7.50;;;;;;;5.33;100.00;100784.78;5111391;28;20032;-57
2023/12/09 04:33:21;;;;;;;27.75;7.53;;;;;;;5.31;100.00;100786.63;5095143;27;20048;-58
2023/12/09 04:35:47;;;;;;;22.75;8.35;;;;;;;5.33;100.00;100783.94;5111787;27;20106;-58
2023/12/09 04:38:12;;;;;;;37.65;8.52;;;;;;;5.38;100.00;100779.28;5094840;28;20031;-58
2023/12/09 04:40:38;;;;;;;25.98;6.78;;;;;;;5.34;100.00;100775.09;5116791;27;20028;-58
2023/12/09 04:43:03;;;;;;;18.00;7.25;;;;;;;5.40;100.00;100777.47;5114077;27;20057;-58
2023/12/09 04:45:31;;;;;;;29.02;7.18;;;;;;;5.34;100.00;100775.09;5110588;28;20038;-58
2023/12/09 04:48:00;;;;;;;25.55;8.40;;;;;;;5.17;100.00;100741.50;5113780;27;20035;-58
2023/12/09 04:50:25;;;;;;;21.83;6.88;;;;;;;5.34;100.00;100764.53;5112638;27;20066;-58
2023/12/09 04:52:53;;;;;;;24.50;7.13;;;;;;;5.36;100.00;100767.97;5095080;28;20102;-57
2023/12/09 04:55:18;;;;;;;19.48;6.13;;;;;;;5.34;100.00;100756.63;5111517;28;20027;-57
2023/12/09 04:57:43;;;;;;;35.40;7.40;;;;;;;5.34;100.00;100749.56;5111512;28;20374;-58
2023/12/09 05:00:10;;;;;;;25.55;6.32;;;;;;;5.36;100.00;100760.06;5110966;27;20027;-57
2023/12/09 05:02:36;;;;;;;18.85;6.78;;;;;;;5.38;100.00;100755.56;5111972;27;20042;-57
2023/12/09 05:05:04;;;;;;;24.27;7.75;;;;;;;5.34;100.00;100740.81;5113916;27;20028;-57
2023/12/09 05:07:30;;;;;;;18.00;6.75;;;;;;;5.34;100.00;100741.66;5111721;28;20073;-57
2023/12/09 05:09:56;;;;;;;21.88;7.00;;;;;;;5.40;100.00;100738.75;5092792;28;20027;-58
2023/12/09 05:12:21;;;;;;;23.15;7.55;;;;;;;5.39;100.00;100744.09;5114195;27;20031;-57
2023/12/09 05:14:47;;;;;;;25.73;7.10;;;;;;;5.39;100.00;100746.75;5095766;28;20020;-57
2023/12/09 05:17:12;;;;;;;17.10;6.55;;;;;;;5.39;100.00;100744.97;5111202;28;20050;-58
2023/12/09 05:19:37;;;;;;;22.00;6.82;;;;;;;5.44;100.00;100748.25;5111366;28;20130;-58
2023/12/09 05:22:03;;;;;;;33.00;7.22;;;;;;;5.38;100.00;100747.66;5093188;28;20023;-57
2023/12/09 05:24:28;;;;;;;30.63;7.10;;;;;;;5.41;100.00;100743.13;5094400;28;20224;-58
2023/12/09 05:26:54;;;;;;;20.52;7.30;;;;;;;5.38;100.00;100742.38;5090710;28;20079;-58
2023/12/09 05:29:20;;;;;;;21.40;7.05;;;;;;;5.39;100.00;100733.56;5113743;27;20024;-58
2023/12/09 05:31:45;;;;;;;21.35;6.75;;;;;;;5.37;100.00;100732.75;5089465;28;20035;-57
2023/12/09 05:34:10;;;;;;;30.63;7.00;;;;;;;5.37;100.00;100733.59;5094871;28;20031;-58
2023/12/09 05:36:38;;;;;;;28.50;7.38;;;;;;;5.36;100.00;100737.19;5091492;28;20020;-57
2023/12/09 05:39:03;;;;;;;22.40;7.05;;;;;;;5.26;100.00;100725.28;5090935;28;20024;-57
2023/12/09 05:41:28;;;;;;;15.40;6.00;;;;;;;5.33;100.00;100736.47;5090470;28;20469;-58
2023/12/09 05:43:54;;;;;;;29.65;6.90;;;;;;;5.32;100.00;100726.81;5089761;28;20028;-58
2023/12/09 05:46:19;;;;;;;26.35;7.63;;;;;;;5.34;100.00;100727.63;5090288;28;20039;-58
2023/12/09 05:48:45;;;;;;;20.63;5.85;;;;;;;5.36;100.00;100725.78;5091065;28;20028;-58
2023/12/09 05:51:13;;;;;;;17.77;5.47;;;;;;;5.27;100.00;100711.22;5087928;28;20032;-58
2023/12/09 05:53:40;;;;;;;16.20;5.43;;;;;;;5.36;100.00;100710.81;5089501;28;20153;-57
2023/12/09 05:56:12;;;;;;;23.00;7.47;;;;;;;5.36;100.00;100717.88;5090487;28;20020;-57
2023/12/09 05:58:41;;;;;;;15.80;6.30;;;;;;;5.39;100.00;100710.69;5094064;28;20111;-58
2023/12/09 06:01:07;;;;;;;22.20;6.50;;;;;;;5.31;100.00;100701.38;5093115;28;20023;-58
2023/12/09 06:03:32;;;;;;;14.40;6.35;;;;;;;5.40;100.00;100719.44;5093429;28;20019;-58
2023/12/09 06:05:58;;;;;;;14.88;6.60;;;;;;;5.39;100.00;100715.94;5094075;28;20024;-58
2023/12/09 06:08:23;;;;;;;22.83;6.30;;;;;;;5.37;100.00;100709.88;5094853;28;20020;-57
2023/12/09 06:10:49;;;;;;;22.40;6.15;;;;;;;5.39;100.00;100708.03;5094889;28;20036;-58
2023/12/09 06:13:15;;;;;;;22.17;5.90;;;;;;;5.29;100.00;100696.16;5092812;28;20036;-58
2023/12/09 06:15:43;;;;;;;22.38;6.53;;;;;;;5.33;100.00;100700.41;5092619;28;20047;-58
2023/12/09 06:18:11;;;;;;;18.40;6.28;;;;;;;5.34;100.00;100686.28;5095308;28;20031;-58
2023/12/09 06:20:38;;;;;;;16.73;5.97;;;;;;;5.34;100.00;100675.72;5100075;28;20024;-58
2023/12/09 06:23:04;;;;;;;25.35;6.35;;;;;;;5.34;100.00;100665.19;5094289;28;20492;-57
2023/12/09 06:25:29;;;;;;;24.85;6.53;;;;;;;5.34;100.00;100675.72;5086197;28;20048;-57
2023/12/09 06:27:54;;;;;;;16.27;5.68;;;;;;;5.35;100.00;100673.94;5074823;28;20052;-58
2023/12/09 06:30:20;;;;;;;24.13;7.28;;;;;;;5.31;100.00;100675.88;5072318;28;20154;-58
2023/12/09 06:32:45;;;;;;;26.33;6.35;;;;;;;5.28;100.00;100665.44;5078223;28;20025;-58
2023/12/09 06:35:11;;;;;;;22.02;6.60;;;;;;;5.30;100.00;100660.97;5075148;28;20035;-57
2023/12/09 06:37:36;;;;;;;16.92;6.53;;;;;;;5.30;100.00;100662.75;5072313;28;20027;-58
2023/12/09 06:40:05;;;;;;;16.40;5.95;;;;;;;5.35;100.00;100658.13;5074240;28;20028;-58
2023/12/09 06:42:30;;;;;;;22.08;6.47;;;;;;;5.34;100.00;100654.63;5073552;28;20060;-58
2023/12/09 06:44:58;;;;;;;18.83;5.97;;;;;;;5.33;100.00;100652.94;5073477;28;20029;-57
2023/12/09 06:47:24;;;;;;;16.75;5.63;;;;;;;5.34;100.00;100638.81;5074952;28;20020;-58
2023/12/09 06:49:51;;;;;;;21.40;6.57;;;;;;;5.34;100.00;100637.97;5074785;28;20024;-58
2023/12/09 06:52:20;;;;;;;16.60;6.95;;;;;;;5.33;100.00;100634.47;5073345;28;20103;-57
2023/12/09 06:54:45;;;;;;;21.55;6.07;;;;;;;5.27;100.00;100623.34;5073171;28;20016;-57
2023/12/09 06:57:10;;;;;;;15.55;5.47;;;;;;;5.29;100.00;100619.69;5073416;28;20435;-58
2023/12/09 06:59:38;;;;;;;19.63;5.75;;;;;;;5.30;100.00;100594.22;5074995;28;20027;-58
2023/12/09 07:02:05;;;;;;;20.98;6.07;;;;;;;5.29;100.00;100582.78;5075574;28;20387;-57
2023/12/09 07:04:33;;;;;;;15.35;5.63;;;;;;;5.29;100.00;100585.41;5073731;28;20070;-57
2023/12/09 07:07:01;;;;;;;16.77;6.78;;;;;;;5.33;100.00;100584.38;5077102;28;20060;-58
2023/12/09 07:09:28;;;;;;;20.65;6.47;;;;;;;5.35;100.00;100573.75;5070493;28;20025;-58
2023/12/09 07:11:54;;;;;;;19.13;5.07;;;;;;;5.36;100.00;100555.22;5071421;28;20063;-58
2023/12/09 07:14:21;;;;;;;18.98;6.00;;;;;;;5.40;100.00;100555.94;5072697;28;20048;-58
2023/12/09 07:16:49;;;;;;;21.67;7.07;;;;;;;5.46;100.00;100545.09;5073593;28;20016;-58
2023/12/09 07:19:15;;;;;;;16.35;5.50;;;;;;;5.49;100.00;100544.09;5073406;28;20082;-58
2023/12/09 07:21:40;;;;;;;16.10;5.10;;;;;;;5.50;100.00;100541.41;5073240;28;20021;-58
2023/12/09 07:24:06;;;;;;;19.77;6.15;;;;;;;5.50;100.00;100538.75;5071866;28;20020;-58
2023/12/09 07:26:31;;;;;;;24.10;6.05;;;;;;;5.53;100.00;100553.56;5101807;28;20114;-58
2023/12/09 07:28:56;;;;;;;21.77;6.63;;;;;;;5.54;100.00;100553.50;5097834;27;20454;-58
2023/12/09 07:31:22;;;;;;;18.38;5.65;;;;;;;5.56;100.00;100561.34;5112839;28;20031;-59
2023/12/09 07:33:48;;;;;;;19.55;5.45;;;;;;;5.59;100.00;100554.16;5110466;27;20019;-57
2023/12/09 07:36:13;;;;;;;11.68;4.78;;;;;;;5.62;100.00;100559.28;5113047;28;20110;-58
2023/12/09 07:38:39;;;;;;;17.77;5.40;;;;;;;5.66;100.00;100536.25;5114578;27;20016;-58
2023/12/09 07:41:07;;;;;;;16.23;6.32;;;;;;;5.57;100.00;100515.59;5098582;28;20122;-58
2023/12/09 07:43:32;;;;;;;21.50;5.82;;;;;;;5.67;100.00;100516.84;5113454;27;20024;-58
2023/12/09 07:45:58;;;;;;;21.17;5.85;;;;;;;5.67;100.00;100514.19;5112144;28;20464;-58
2023/12/09 07:48:23;;;;;;;17.40;5.82;;;;;;;5.70;100.00;100528.09;5113726;28;20032;-58
2023/12/09 07:50:48;;;;;;;15.13;5.88;;;;;;;5.72;100.00;100540.38;5112654;28;20068;-58
2023/12/09 07:53:14;;;;;;;15.55;5.63;;;;;;;5.72;100.00;100519.28;5113091;28;20024;-58
2023/12/09 07:55:39;;;;;;;18.50;5.75;;;;;;;5.76;100.00;100518.19;5094469;28;20061;-58
2023/12/09 07:58:05;;;;;;;13.18;5.05;;;;;;;5.77;100.00;100517.28;5113157;28;20461;-58
2023/12/09 08:00:31;;;;;;;16.02;4.68;;;;;;;5.79;100.00;100503.03;5112275;28;20020;-58
2023/12/09 08:03:02;;;;;;;17.67;5.15;;;;;;;5.81;100.00;100492.44;5094500;28;20397;-58
2023/12/09 08:05:28;;;;;;;23.98;6.00;;;;;;;5.83;100.00;100494.06;5112810;28;20033;-58
2023/12/09 08:07:53;;;;;;;18.27;5.47;;;;;;;5.89;100.00;100490.28;5094395;28;20023;-58
2023/12/09 08:10:19;;;;;;;17.70;5.50;;;;;;;5.87;100.00;100484.22;5094193;28;20023;-58
2023/12/09 08:12:44;;;;;;;18.90;5.43;;;;;;;5.93;100.00;100486.56;5112529;28;20110;-58
2023/12/09 08:15:10;;;;;;;18.92;6.07;;;;;;;5.96;100.00;100488.22;5111438;28;20048;-58
2023/12/09 08:17:35;;;;;;;15.55;5.30;;;;;;;6.00;100.00;100484.47;5112740;28;20492;-58
2023/12/09 08:20:05;;;;;;;15.63;5.13;;;;;;;6.03;100.00;100493.13;5112247;28;20023;-58
2023/12/09 08:22:31;;;;;;;23.08;6.15;;;;;;;6.02;100.00;100479.97;5112332;28;20106;-58
2023/12/09 08:24:56;;;;;;;21.00;5.30;;;;;;;6.04;100.00;100484.25;5111558;28;20110;-58
2023/12/09 08:27:22;;;;;;;20.05;4.97;;;;;;;6.11;100.00;100483.00;5093872;28;20043;-58
2023/12/09 08:29:49;;;;;;;11.30;4.18;;;;;;;6.08;100.00;100474.38;5111209;28;20031;-58
2023/12/09 08:32:15;;;;;;;16.48;5.22;;;;;;;6.12;100.00;100476.81;5093111;28;20031;-58
2023/12/09 08:34:40;;;;;;;20.27;5.20;;;;;;;6.04;100.00;100465.78;5111635;28;20481;-58
2023/12/09 08:37:05;;;;;;;16.25;4.82;;;;;;;6.13;100.00;100470.59;5111965;28;20477;-58
2023/12/09 08:39:31;;;;;;;12.10;4.15;;;;;;;6.14;100.00;100474.94;5093527;28;20122;-58
2023/12/09 08:41:56;;;;;;;15.48;5.68;;;;;;;6.21;100.00;100478.13;5094285;28;20024;-58
2023/12/09 08:44:21;;;;;;;17.35;4.90;;;;;;;6.20;100.00;100462.34;5111726;28;20055;-58
2023/12/09 08:46:47;;;;;;;8.23;4.25;;;;;;;6.21;100.00;100464.94;5111552;28;20028;-58
2023/12/09 08:49:12;;;;;;;16.35;4.57;;;;;;;6.23;100.00;100462.19;5093804;28;20031;-58
2023/12/09 08:51:48;;;;;;;19.80;5.28;;;;;;;6.28;100.00;100462.81;5111647;28;20028;-57
2023/12/09 08:54:14;;;;;;;12.65;4.60;;;;;;;6.21;100.00;100446.44;5091442;28;20027;-58
2023/12/09 08:56:40;;;;;;;13.75;5.80;;;;;;;6.29;100.00;100451.31;5110471;28;20035;-58
2023/12/09 08:59:07;;;;;;;8.82;4.63;;;;;;;6.30;100.00;100451.25;5094051;28;20100;-58
2023/12/09 09:01:36;;;;;;;15.43;5.07;;;;;;;6.32;100.00;100446.75;5109001;28;20470;-57
2023/12/09 09:04:02;;;;;;;5.20;3.50;;;;;;;6.36;100.00;100439.53;5093599;28;20043;-58
2023/12/09 09:06:28;;;;;;;12.70;4.00;;;;;;;6.39;100.00;100441.16;5093236;28;20039;-58
2023/12/09 09:08:53;;;;;;;13.68;5.20;;;;;;;6.36;100.00;100421.88;5111700;28;20079;-58
2023/12/09 09:11:20;;;;;;;12.60;4.60;;;;;;;6.37;100.00;100409.53;5111490;28;20034;-57
2023/12/09 09:13:45;;;;;;;12.13;4.85;;;;;;;6.41;100.00;100405.78;5111845;28;20031;-57
2023/12/09 09:16:11;;;;;;;11.35;4.30;;;;;;;6.44;100.00;100400.34;5110932;28;20511;-58
2023/12/09 09:18:36;;;;;;;11.85;4.32;;;;;;;6.43;100.00;100385.41;5111897;28;20024;-58
2023/12/09 09:21:02;;;;;;;19.67;6.00;;;;;;;6.43;100.00;100374.84;5110933;28;20027;-58
2023/12/09 09:23:27;;;;;;;15.07;4.25;;;;;;;6.43;100.00;100363.44;5111696;28;20024;-58
2023/12/09 09:25:53;;;;;;;10.68;4.25;;;;;;;6.50;100.00;100356.88;5092621;28;20047;-57
2023/12/09 09:28:18;;;;;;;7.85;4.22;;;;;;;6.56;100.00;100359.22;5093436;28;20149;-58
2023/12/09 09:30:43;;;;;;;11.20;4.25;;;;;;;6.55;100.00;100347.78;5110842;28;20342;-58
2023/12/09 09:33:09;;;;;;;15.52;4.72;;;;;;;6.54;100.00;100343.44;5111264;28;20462;-57
2023/12/09 09:35:35;;;;;;;16.55;4.95;;;;;;;6.57;100.00;100337.13;5092699;28;20101;-58
2023/12/09 09:38:00;;;;;;;11.95;4.45;;;;;;;6.59;100.00;100345.84;5093147;28;20027;-58
2023/12/09 09:40:26;;;;;;;8.88;4.00;;;;;;;6.68;100.00;100344.47;5111175;28;20030;-58
2023/12/09 09:43:05;;;;;;;9.32;4.97;;;;;;;6.65;100.00;100340.22;5093164;28;20080;-58
2023/12/09 09:45:30;;;;;;;6.47;3.88;;;;;;;6.71;100.00;100341.66;5110610;28;20788;-58
2023/12/09 09:47:56;;;;;;;13.82;4.60;;;;;;;6.74;100.00;100330.94;5093082;28;20027;-58
2023/12/09 09:50:26;;;;;;;9.95;3.90;;;;;;;6.76;100.00;100326.38;5092788;28;20031;-58
2023/12/09 09:52:53;;;;;;;10.50;4.18;;;;;;;6.78;100.00;100324.53;5092944;28;20027;-58
2023/12/09 09:55:22;;;;;;;17.38;4.65;;;;;;;6.81;100.00;100313.78;5110897;28;20072;-58
2023/12/09 09:57:49;;;;;;;12.43;4.25;;;;;;;6.81;100.00;100305.84;5111146;28;20027;-58
2023/12/09 10:00:16;;;;;;;9.60;3.50;;;;;;;6.81;100.00;100295.28;5074579;28;20027;-58
2023/12/09 10:02:50;;;;;;;7.30;3.78;;;;;;;6.90;100.00;100300.03;5092664;28;20072;-58
2023/12/09 10:05:17;;;;;;;15.30;4.50;;;;;;;6.88;100.00;100286.03;5110583;28;20110;-58
2023/12/09 10:07:43;;;;;;;9.52;3.92;;;;;;;6.90;100.00;100285.97;5111302;28;20077;-58
2023/12/09 10:10:10;;;;;;;14.80;4.07;;;;;;;6.90;100.00;100260.38;5073652;28;20110;-57
2023/12/09 10:12:36;;;;;;;16.05;4.20;;;;;;;6.81;100.00;100235.34;5093008;28;20073;-58
2023/12/09 10:15:02;;;;;;;10.30;4.25;;;;;;;6.93;100.00;100241.69;5110273;28;20024;-58
2023/12/09 10:17:28;;;;;;;9.05;3.75;;;;;;;6.95;100.00;100233.69;5092904;28;20023;-58
2023/12/09 10:20:00;;;;;;;8.90;3.60;;;;;;;6.97;100.00;100221.22;5110470;28;20028;-57
2023/12/09 10:22:26;;;;;;;14.10;4.97;;;;;;;6.98;100.00;100220.31;5111288;28;20035;-58
2023/12/09 10:24:52;;;;;;;8.07;3.70;;;;;;;6.97;100.00;100214.16;5110356;28;20026;-58
2023/12/09 10:27:27;;;;;;;13.32;3.78;;;;;;;7.07;100.00;100195.97;5092705;28;20454;-58
2023/12/09 10:29:53;;;;;;;9.45;4.40;;;;;;;6.99;100.00;100190.28;5110166;28;20077;-58
2023/12/09 10:32:23;;;;;;;12.27;3.78;;;;;;;7.01;100.00;100178.66;5111228;28;20028;-57
2023/12/09 10:34:49;;;;;;;8.68;3.78;;;;;;;7.02;100.00;100169.78;5110445;28;20534;-57
2023/12/09 10:37:18;;;;;;;7.25;3.88;;;;;;;7.08;100.00;100167.72;5092558;28;20393;-57
2023/12/09 10:39:48;;;;;;;8.48;3.80;;;;;;;7.07;100.00;100169.53;5110847;28;20024;-57
2023/12/09 10:42:15;;;;;;;8.43;2.45;;;;;;;7.06;100.00;100162.53;5110864;28;20069;-58
2023/12/09 10:44:41;;;;;;;13.30;4.07;;;;;;;7.10;100.00;100152.63;5111870;28;20051;-58
2023/12/09 10:47:09;;;;;;;8.60;3.65;;;;;;;7.18;100.00;100134.50;5114559;28;20100;-58
2023/12/09 10:49:35;;;;;;;7.82;3.72;;;;;;;7.13;100.00;100132.13;5103219;28;20043;-58
2023/12/09 10:52:01;;;;;;;10.57;3.40;;;;;;;7.13;100.00;100110.13;5095996;28;20398;-58
2023/12/09 10:54:26;;;;;;;9.38;3.67;;;;;;;7.15;100.00;100095.03;5099270;28;20061;-58
2023/12/09 10:56:54;;;;;;;8.15;3.33;;;;;;;7.18;100.00;100089.56;5100518;28;20494;-58
2023/12/09 10:59:20;;;;;;;9.95;4.05;;;;;;;7.20;100.00;100077.91;5076238;28;20099;-58
2023/12/09 11:01:46;;;;;;;11.15;3.95;;;;;;;7.21;100.00;100070.84;5095252;28;20114;-58
2023/12/09 11:04:13;;;;;;;7.57;3.30;;;;;;;7.14;100.00;100062.44;5104841;27;20028;-58
2023/12/09 11:06:40;;;;;;;6.78;3.47;;;;;;;7.18;100.00;100053.38;5108357;27;20435;-58
2023/12/09 11:09:07;;;;;;;8.48;3.20;;;;;;;7.18;100.00;100056.03;5096503;28;20028;-58
2023/12/09 11:11:33;;;;;;;9.75;3.47;;;;;;;7.26;100.00;100044.97;5095457;28;20024;-58
2023/12/09 11:13:58;;;;;;;6.30;3.63;;;;;;;7.26;100.00;100029.09;5114061;28;20046;-58